Time;durP1;ratioP1;P1;durP2;ratioP2;P2;SDS_P1;SDS_P2;PMS_P1;PMS_P2;Temp;Humidity;BMP_temperature;BMP_pressure;BME280_temperature;BME280_humidity;BME280_pressure;Samples;Min_cycle;Max_cycle;Signal;HPM_P1;HPM_P2
2024/01/23 00:01:00;;;;;;;7.30;2.20;;;;;;;;;;10163103;29;20048;-75
2024/01/23 00:06:05;;;;;;;14.40;3.00;;;;;;;;;;10163033;29;20064;-75
2024/01/23 00:11:08;;;;;;;10.23;2.88;;;;;;;;;;10163891;29;20044;-75
2024/01/23 00:16:11;;;;;;;10.13;2.35;;;;;;;;;;10167624;29;20530;-75
2024/01/23 00:21:16;;;;;;;9.07;2.63;;;;;;;;;;10160420;29;20062;-75
2024/01/23 00:26:19;;;;;;;9.75;2.88;;;;;;;;;;10158100;29;20060;-75
2024/01/23 00:31:22;;;;;;;10.63;2.60;;;;;;;;;;10153570;29;20087;-75
2024/01/23 00:36:27;;;;;;;9.18;2.80;;;;;;;;;;10157871;29;20670;-75
2024/01/23 00:41:31;;;;;;;10.13;2.38;;;;;;;;;;10162641;29;20044;-75
2024/01/23 00:46:34;;;;;;;10.48;2.80;;;;;;;;;;10161774;29;20054;-75
2024/01/23 00:51:39;;;;;;;9.48;2.80;;;;;;;;;;10157638;29;20067;-75
2024/01/23 00:56:42;;;;;;;11.18;2.50;;;;;;;;;;10152788;29;20598;-75
2024/01/23 01:01:45;;;;;;;9.25;2.00;;;;;;;;;;10157205;29;20048;-75
2024/01/23 01:06:50;;;;;;;12.88;2.78;;;;;;;;;;10151640;29;20059;-75
2024/01/23 01:11:53;;;;;;;14.48;3.58;;;;;;;;;;10160966;29;20060;-75
2024/01/23 01:16:57;;;;;;;9.88;2.30;;;;;;;;;;10159578;29;20071;-75
2024/01/23 01:22:02;;;;;;;6.97;2.35;;;;;;;;;;10157632;29;20058;-75
2024/01/23 01:27:05;;;;;;;10.77;2.90;;;;;;;;;;10157079;29;20052;-75
2024/01/23 01:32:09;;;;;;;14.85;2.20;;;;;;;;;;10158920;29;20127;-75
2024/01/23 01:37:13;;;;;;;8.05;2.72;;;;;;;;;;10153831;29;20427;-75
2024/01/23 01:42:16;;;;;;;12.63;2.70;;;;;;;;;;10156014;29;20055;-75
2024/01/23 01:47:20;;;;;;;11.77;2.65;;;;;;;;;;10153630;29;20048;-75
2024/01/23 01:52:25;;;;;;;9.77;2.28;;;;;;;;;;10154634;29;20055;-75
2024/01/23 01:57:30;;;;;;;12.18;2.85;;;;;;;;;;10158923;29;20060;-75
2024/01/23 02:02:34;;;;;;;12.32;2.42;;;;;;;;;;10158784;29;20115;-75
2024/01/23 02:07:39;;;;;;;15.20;3.55;;;;;;;;;;10158485;29;20040;-75
2024/01/23 02:12:42;;;;;;;11.93;2.95;;;;;;;;;;10150183;29;20564;-75
2024/01/23 02:17:45;;;;;;;10.48;2.53;;;;;;;;;;10150055;29;20135;-75
2024/01/23 02:22:50;;;;;;;9.18;2.00;;;;;;;;;;10152164;29;20127;-75
2024/01/23 02:27:55;;;;;;;12.35;2.67;;;;;;;;;;10152887;29;20044;-75
2024/01/23 02:32:58;;;;;;;9.27;2.10;;;;;;;;;;10149182;29;20044;-75
2024/01/23 02:38:01;;;;;;;8.63;2.35;;;;;;;;;;10155002;29;20127;-75
2024/01/23 02:43:06;;;;;;;6.32;1.88;;;;;;;;;;10156331;29;20439;-75
2024/01/23 02:48:09;;;;;;;8.40;2.13;;;;;;;;;;10156029;29;20127;-74
2024/01/23 02:53:13;;;;;;;9.45;2.00;;;;;;;;;;10157630;29;20146;-74
2024/01/23 02:58:18;;;;;;;9.18;2.05;;;;;;;;;;10155906;29;20397;-75
2024/01/23 03:03:21;;;;;;;6.70;1.70;;;;;;;;;;10155005;29;20425;-74
2024/01/23 03:08:25;;;;;;;8.70;1.80;;;;;;;;;;10154309;29;20067;-75
2024/01/23 03:13:29;;;;;;;7.40;1.73;;;;;;;;;;10147490;29;20056;-75
2024/01/23 03:18:33;;;;;;;5.80;1.30;;;;;;;;;;10155314;29;20056;-74
2024/01/23 03:23:36;;;;;;;5.38;1.60;;;;;;;;;;10154153;29;20489;-75
2024/01/23 03:28:41;;;;;;;6.15;1.50;;;;;;;;;;10154051;29;20063;-74
2024/01/23 03:33:46;;;;;;;4.82;1.38;;;;;;;;;;10159552;29;20041;-74
2024/01/23 03:38:50;;;;;;;5.33;1.73;;;;;;;;;;10165302;29;20119;-74
2024/01/23 03:43:54;;;;;;;5.85;1.60;;;;;;;;;;10162682;29;20047;-74
2024/01/23 03:48:58;;;;;;;6.50;1.83;;;;;;;;;;10163796;29;20139;-74
2024/01/23 03:54:01;;;;;;;5.97;1.58;;;;;;;;;;10164236;29;20109;-74
2024/01/23 03:59:06;;;;;;;8.45;1.75;;;;;;;;;;10158233;29;20555;-73
2024/01/23 04:04:10;;;;;;;7.15;1.95;;;;;;;;;;10160684;29;20058;-75
2024/01/23 04:09:13;;;;;;;13.48;3.00;;;;;;;;;;10157427;29;20056;-74
2024/01/23 04:14:18;;;;;;;7.43;1.73;;;;;;;;;;10159793;29;20060;-73
2024/01/23 04:19:21;;;;;;;8.93;2.13;;;;;;;;;;10153978;29;20060;-75
2024/01/23 04:24:24;;;;;;;5.03;1.70;;;;;;;;;;10157709;29;20063;-74
2024/01/23 04:29:29;;;;;;;8.32;1.92;;;;;;;;;;10155273;29;20483;-74
2024/01/23 04:34:32;;;;;;;11.80;2.22;;;;;;;;;;10146592;29;20055;-74
2024/01/23 04:39:35;;;;;;;8.57;2.30;;;;;;;;;;10156412;29;20052;-74
2024/01/23 04:44:40;;;;;;;6.28;1.85;;;;;;;;;;10160916;29;20048;-73
2024/01/23 04:49:43;;;;;;;8.30;2.50;;;;;;;;;;10158771;29;20048;-74
2024/01/23 04:54:47;;;;;;;7.97;2.33;;;;;;;;;;10158480;29;20044;-74
2024/01/23 04:59:51;;;;;;;9.85;1.95;;;;;;;;;;10159317;29;20703;-73
2024/01/23 05:04:55;;;;;;;4.13;1.20;;;;;;;;;;10161010;29;20061;-74
2024/01/23 05:09:58;;;;;;;10.07;2.10;;;;;;;;;;10202247;23;20443;-75
2024/01/23 05:15:04;;;;;;;12.60;3.28;;;;;;;;;;10190008;28;20480;-75
2024/01/23 05:20:08;;;;;;;9.07;2.65;;;;;;;;;;10169410;29;20060;-75
2024/01/23 05:25:12;;;;;;;9.63;2.45;;;;;;;;;;10160951;29;20100;-75
2024/01/23 05:30:18;;;;;;;9.73;2.45;;;;;;;;;;10158091;29;20056;-76
2024/01/23 05:35:21;;;;;;;12.10;2.95;;;;;;;;;;10158051;29;20059;-75
2024/01/23 05:40:24;;;;;;;10.75;2.78;;;;;;;;;;10154524;29;20056;-75
2024/01/23 05:45:29;;;;;;;10.98;3.05;;;;;;;;;;10155845;29;20096;-75
2024/01/23 05:50:32;;;;;;;8.98;2.00;;;;;;;;;;10158667;29;20056;-75
2024/01/23 05:55:36;;;;;;;8.20;1.80;;;;;;;;;;10159333;29;20052;-75
2024/01/23 06:00:40;;;;;;;10.95;2.40;;;;;;;;;;10159415;29;20056;-75
2024/01/23 06:05:44;;;;;;;10.77;2.65;;;;;;;;;;10151869;29;20041;-75
2024/01/23 06:10:48;;;;;;;5.45;1.77;;;;;;;;;;10156171;29;20063;-75
2024/01/23 06:15:52;;;;;;;12.23;2.78;;;;;;;;;;10143677;29;20393;-75
2024/01/23 06:20:57;;;;;;;10.63;3.10;;;;;;;;;;10154129;29;20080;-75
2024/01/23 06:26:01;;;;;;;12.50;3.55;;;;;;;;;;10151866;29;20056;-75
2024/01/23 06:31:05;;;;;;;11.18;2.75;;;;;;;;;;10151516;29;20135;-75
2024/01/23 06:36:09;;;;;;;9.20;2.65;;;;;;;;;;10157133;29;20126;-75
2024/01/23 06:41:12;;;;;;;10.00;2.63;;;;;;;;;;10157814;29;20428;-77
2024/01/23 06:46:17;;;;;;;10.63;2.65;;;;;;;;;;10153723;29;20104;-75
2024/01/23 06:51:22;;;;;;;14.90;3.33;;;;;;;;;;10155648;29;20111;-75
2024/01/23 06:56:25;;;;;;;14.93;3.30;;;;;;;;;;10153415;29;20052;-75
2024/01/23 07:01:29;;;;;;;12.00;3.30;;;;;;;;;;10155914;29;20139;-75
2024/01/23 07:06:33;;;;;;;11.13;3.25;;;;;;;;;;10146872;29;20834;-75
2024/01/23 07:11:40;;;;;;;15.25;3.47;;;;;;;;;;10148085;29;20749;-75
2024/01/23 07:16:44;;;;;;;14.18;4.10;;;;;;;;;;10141619;29;20556;-75
2024/01/23 07:21:48;;;;;;;15.75;3.28;;;;;;;;;;10151119;29;20084;-75
2024/01/23 07:26:51;;;;;;;16.02;3.92;;;;;;;;;;10156077;29;20451;-75
2024/01/23 07:31:57;;;;;;;15.57;3.80;;;;;;;;;;10153708;29;20052;-75
2024/01/23 07:37:00;;;;;;;12.65;3.47;;;;;;;;;;10154151;29;20135;-75
2024/01/23 07:42:04;;;;;;;12.00;2.70;;;;;;;;;;10156394;29;20139;-76
2024/01/23 07:47:08;;;;;;;13.93;3.42;;;;;;;;;;10152082;29;20163;-76
2024/01/23 07:52:14;;;;;;;20.27;3.65;;;;;;;;;;10147193;29;20103;-76
2024/01/23 07:57:17;;;;;;;7.83;2.87;;;;;;;;;;10154265;29;20134;-76
2024/01/23 08:02:22;;;;;;;11.45;3.30;;;;;;;;;;10153318;29;20127;-76
2024/01/23 08:07:25;;;;;;;9.50;3.03;;;;;;;;;;10153177;29;20048;-76
2024/01/23 08:12:29;;;;;;;12.55;3.13;;;;;;;;;;10163885;29;20135;-75
2024/01/23 08:17:33;;;;;;;13.00;2.92;;;;;;;;;;10151728;29;20460;-76
2024/01/23 08:22:37;;;;;;;11.85;3.03;;;;;;;;;;10157828;29;20056;-76
2024/01/23 08:27:42;;;;;;;10.98;2.45;;;;;;;;;;10156806;29;20070;-75
2024/01/23 08:32:48;;;;;;;12.82;3.13;;;;;;;;;;10155841;29;20052;-76
2024/01/23 08:37:51;;;;;;;10.18;2.50;;;;;;;;;;10159053;29;20741;-76
2024/01/23 08:42:54;;;;;;;12.57;3.58;;;;;;;;;;10160547;29;20048;-76
2024/01/23 08:47:59;;;;;;;9.80;2.97;;;;;;;;;;10159569;29;20047;-75
2024/01/23 08:53:03;;;;;;;16.38;3.35;;;;;;;;;;10159612;29;20143;-76
2024/01/23 08:58:07;;;;;;;13.27;3.13;;;;;;;;;;10160781;29;20535;-75
2024/01/23 09:03:11;;;;;;;9.32;2.75;;;;;;;;;;10158360;29;20104;-76
2024/01/23 09:08:15;;;;;;;12.88;3.25;;;;;;;;;;10156328;29;20054;-75
2024/01/23 09:13:19;;;;;;;15.80;3.58;;;;;;;;;;10150752;29;20060;-76
2024/01/23 09:18:24;;;;;;;11.98;2.90;;;;;;;;;;10156807;29;20724;-76
2024/01/23 09:23:28;;;;;;;16.90;2.97;;;;;;;;;;10151887;29;20049;-77
2024/01/23 09:28:31;;;;;;;12.98;3.05;;;;;;;;;;10155923;29;20052;-76
2024/01/23 09:33:36;;;;;;;11.75;2.70;;;;;;;;;;10157459;29;20693;-76
2024/01/23 09:38:39;;;;;;;8.85;2.63;;;;;;;;;;10161738;29;20044;-75
2024/01/23 09:43:43;;;;;;;13.45;3.08;;;;;;;;;;10158503;29;20720;-76
2024/01/23 09:48:48;;;;;;;16.63;4.05;;;;;;;;;;10159332;29;20048;-76
2024/01/23 09:53:52;;;;;;;8.65;2.78;;;;;;;;;;10157827;29;20064;-76
2024/01/23 09:58:56;;;;;;;13.50;3.03;;;;;;;;;;10157558;29;20084;-75
2024/01/23 10:04:04;;;;;;;12.77;3.90;;;;;;;;;;10160111;29;20667;-75
2024/01/23 10:09:08;;;;;;;13.82;3.55;;;;;;;;;;10153509;29;20385;-75
2024/01/23 10:14:14;;;;;;;14.07;2.72;;;;;;;;;;10158122;29;20083;-76
2024/01/23 10:19:18;;;;;;;11.57;3.50;;;;;;;;;;10145752;29;20072;-76
2024/01/23 10:24:22;;;;;;;19.33;3.47;;;;;;;;;;10149687;29;20058;-75
2024/01/23 10:29:26;;;;;;;17.35;3.25;;;;;;;;;;10156066;29;20543;-76
2024/01/23 10:34:31;;;;;;;16.33;3.30;;;;;;;;;;10152020;29;20496;-76
2024/01/23 10:39:35;;;;;;;14.60;3.37;;;;;;;;;;10151326;29;20045;-76
2024/01/23 10:44:41;;;;;;;15.02;3.22;;;;;;;;;;10155576;29;20073;-76
2024/01/23 10:49:46;;;;;;;13.03;3.17;;;;;;;;;;10155636;29;20507;-75
2024/01/23 10:54:54;;;;;;;14.55;2.90;;;;;;;;;;10153532;29;20052;-76
2024/01/23 10:59:58;;;;;;;12.48;3.38;;;;;;;;;;10151569;29;20065;-76
2024/01/23 11:05:04;;;;;;;12.02;3.05;;;;;;;;;;10153617;29;20547;-76
2024/01/23 11:10:15;;;;;;;16.50;4.93;;;;;;;;;;10154549;29;20051;-76
2024/01/23 11:15:18;;;;;;;11.23;3.17;;;;;;;;;;10157319;29;20061;-76
2024/01/23 11:20:23;;;;;;;13.68;3.10;;;;;;;;;;10149433;29;20131;-76
2024/01/23 11:25:27;;;;;;;11.35;3.58;;;;;;;;;;10153969;29;20131;-75
2024/01/23 11:30:30;;;;;;;11.70;3.25;;;;;;;;;;10152387;29;20052;-75
2024/01/23 11:36:08;;;;;;;12.10;3.38;;;;;;;;;;10150843;29;20052;-75
2024/01/23 11:41:21;;;;;;;11.77;3.30;;;;;;;;;;10152978;29;20056;-75
2024/01/23 11:46:26;;;;;;;9.95;3.22;;;;;;;;;;10150760;29;20056;-75
2024/01/23 11:51:31;;;;;;;21.30;4.57;;;;;;;;;;10153363;29;20655;-76
2024/01/23 11:56:35;;;;;;;17.77;3.10;;;;;;;;;;10158797;29;20044;-76
2024/01/23 12:01:40;;;;;;;14.27;3.85;;;;;;;;;;10158471;29;20052;-76
2024/01/23 12:06:45;;;;;;;13.30;3.30;;;;;;;;;;10160514;29;20460;-76
2024/01/23 12:11:48;;;;;;;15.10;3.35;;;;;;;;;;10162156;29;20191;-75
2024/01/23 12:17:04;;;;;;;13.85;3.58;;;;;;;;;;10154041;29;20128;-75
2024/01/23 12:22:09;;;;;;;15.25;3.45;;;;;;;;;;10152509;29;20460;-76
2024/01/23 12:27:13;;;;;;;13.60;3.65;;;;;;;;;;10160887;29;20056;-76
2024/01/23 12:32:18;;;;;;;17.10;3.55;;;;;;;;;;10160204;29;20687;-76
2024/01/23 12:37:26;;;;;;;15.02;3.30;;;;;;;;;;10156870;29;20388;-75
2024/01/23 12:42:29;;;;;;;9.80;2.85;;;;;;;;;;10159429;29;20076;-75
2024/01/23 12:47:33;;;;;;;9.98;2.90;;;;;;;;;;10160772;29;20147;-76
2024/01/23 12:52:38;;;;;;;14.90;3.92;;;;;;;;;;10158409;29;20075;-75
2024/01/23 12:57:41;;;;;;;14.40;3.53;;;;;;;;;;10153664;29;20056;-76
2024/01/23 13:02:45;;;;;;;12.50;2.95;;;;;;;;;;10155373;29;20133;-75
2024/01/23 13:07:50;;;;;;;12.18;3.60;;;;;;;;;;10158690;29;20048;-75
2024/01/23 13:12:53;;;;;;;11.70;3.30;;;;;;;;;;10157872;29;20075;-76
2024/01/23 13:17:57;;;;;;;11.73;3.08;;;;;;;;;;10155387;29;20412;-75
2024/01/23 13:23:02;;;;;;;9.23;2.83;;;;;;;;;;10152799;29;20059;-75
2024/01/23 13:28:06;;;;;;;14.70;2.92;;;;;;;;;;10152372;29;20456;-75
2024/01/23 13:33:09;;;;;;;8.27;2.83;;;;;;;;;;10159762;29;20163;-75
2024/01/23 13:38:14;;;;;;;9.75;2.25;;;;;;;;;;10157691;29;20420;-75
2024/01/23 13:43:17;;;;;;;11.23;2.78;;;;;;;;;;10159291;29;20115;-75
2024/01/23 13:48:21;;;;;;;10.70;2.60;;;;;;;;;;10155588;29;20048;-75
2024/01/23 13:53:26;;;;;;;15.25;3.00;;;;;;;;;;10154010;29;20077;-75
2024/01/23 13:58:29;;;;;;;8.70;2.47;;;;;;;;;;10151871;29;20044;-76
2024/01/23 14:03:34;;;;;;;10.20;3.17;;;;;;;;;;10152007;29;20139;-76
2024/01/23 14:08:41;;;;;;;7.55;2.08;;;;;;;;;;10157736;29;20051;-75
2024/01/23 14:13:44;;;;;;;6.35;2.25;;;;;;;;;;10151874;29;20151;-76
2024/01/23 14:18:48;;;;;;;10.68;2.75;;;;;;;;;;10155658;29;20056;-75
2024/01/23 14:23:52;;;;;;;7.70;2.15;;;;;;;;;;10158585;29;20715;-76
2024/01/23 14:28:56;;;;;;;9.20;2.42;;;;;;;;;;10155981;29;20166;-76
2024/01/23 14:33:59;;;;;;;3.92;1.63;;;;;;;;;;10155825;29;20094;-75
2024/01/23 14:39:04;;;;;;;7.30;2.17;;;;;;;;;;10177710;23;20060;-76
2024/01/23 14:44:08;;;;;;;6.97;2.38;;;;;;;;;;10187497;29;20051;-75
2024/01/23 14:49:12;;;;;;;7.75;2.30;;;;;;;;;;10205983;28;20069;-76
2024/01/23 14:54:16;;;;;;;7.57;2.08;;;;;;;;;;10188924;28;20111;-75
2024/01/23 14:59:21;;;;;;;6.55;2.33;;;;;;;;;;10185773;29;20063;-75
2024/01/23 15:04:24;;;;;;;8.65;2.50;;;;;;;;;;10184573;29;20126;-75
2024/01/23 15:09:30;;;;;;;7.35;2.08;;;;;;;;;;10193883;28;20059;-75
2024/01/23 15:14:34;;;;;;;8.47;2.43;;;;;;;;;;10189187;29;20051;-76
2024/01/23 15:19:37;;;;;;;7.57;2.63;;;;;;;;;;10181407;29;20512;-75
2024/01/23 15:24:42;;;;;;;14.18;3.25;;;;;;;;;;10185820;29;20578;-75
2024/01/23 15:29:46;;;;;;;12.77;3.28;;;;;;;;;;10197968;28;20150;-76
2024/01/23 15:34:49;;;;;;;9.23;2.90;;;;;;;;;;10197442;29;20111;-76
2024/01/23 15:39:54;;;;;;;12.48;3.17;;;;;;;;;;10197591;28;20062;-75
2024/01/23 15:44:57;;;;;;;7.32;2.10;;;;;;;;;;10178691;29;20396;-75
2024/01/23 15:50:04;;;;;;;5.47;1.88;;;;;;;;;;10184629;29;20977;-75
2024/01/23 15:55:10;;;;;;;5.38;2.08;;;;;;;;;;10182618;28;20139;-76
2024/01/23 16:00:19;;;;;;;6.25;1.75;;;;;;;;;;10183833;28;20054;-76
2024/01/23 16:05:22;;;;;;;6.75;1.55;;;;;;;;;;10189688;28;20055;-76
2024/01/23 16:10:29;;;;;;;5.53;2.15;;;;;;;;;;10193389;28;20411;-76
2024/01/23 16:15:32;;;;;;;9.90;2.92;;;;;;;;;;10196068;28;20052;-76
2024/01/23 16:20:36;;;;;;;7.68;2.50;;;;;;;;;;10197388;29;20562;-76
2024/01/23 16:25:41;;;;;;;13.25;3.50;;;;;;;;;;10186466;29;20099;-76
2024/01/23 16:30:45;;;;;;;9.13;2.80;;;;;;;;;;10190370;29;20040;-76
2024/01/23 16:35:49;;;;;;;5.78;1.90;;;;;;;;;;10185859;28;20050;-76
2024/01/23 16:40:54;;;;;;;6.45;1.80;;;;;;;;;;10189077;28;20091;-76
2024/01/23 16:45:57;;;;;;;6.60;1.90;;;;;;;;;;10189671;29;20044;-76
2024/01/23 16:51:03;;;;;;;5.93;1.77;;;;;;;;;;10181119;29;20060;-76
2024/01/23 16:56:08;;;;;;;3.95;1.67;;;;;;;;;;10189903;28;20087;-76
2024/01/23 17:01:12;;;;;;;6.82;1.67;;;;;;;;;;10191425;28;20103;-76
2024/01/23 17:06:15;;;;;;;6.47;1.80;;;;;;;;;;10188603;29;20396;-76
2024/01/23 17:11:20;;;;;;;6.40;1.80;;;;;;;;;;10231144;23;20048;-75
2024/01/23 17:16:23;;;;;;;6.15;2.15;;;;;;;;;;10191155;28;20051;-75
2024/01/23 17:21:26;;;;;;;6.25;2.17;;;;;;;;;;10183958;29;20051;-75
2024/01/23 17:26:31;;;;;;;7.18;2.20;;;;;;;;;;10189984;28;20052;-75
2024/01/23 17:31:35;;;;;;;4.15;1.60;;;;;;;;;;10187843;29;20040;-75
2024/01/23 17:36:38;;;;;;;4.88;1.42;;;;;;;;;;10187053;28;20108;-75
2024/01/23 17:41:45;;;;;;;3.85;1.30;;;;;;;;;;10189734;28;20050;-75
2024/01/23 17:46:49;;;;;;;3.97;1.30;;;;;;;;;;10187345;28;20052;-75
2024/01/23 17:51:53;;;;;;;5.15;1.10;;;;;;;;;;10186318;28;20059;-75
2024/01/23 17:56:57;;;;;;;3.85;1.27;;;;;;;;;;10188372;29;20372;-75
2024/01/23 18:02:01;;;;;;;4.07;1.38;;;;;;;;;;10188630;28;20071;-75
2024/01/23 18:07:04;;;;;;;4.65;1.10;;;;;;;;;;10181264;28;20653;-75
2024/01/23 18:12:11;;;;;;;2.10;0.80;;;;;;;;;;10185544;29;20070;-75
2024/01/23 18:17:15;;;;;;;3.90;1.40;;;;;;;;;;10188422;29;20544;-75
2024/01/23 18:22:20;;;;;;;5.78;1.80;;;;;;;;;;10191255;28;20075;-75
2024/01/23 18:27:29;;;;;;;5.25;1.60;;;;;;;;;;10182658;29;20044;-75
2024/01/23 18:32:32;;;;;;;4.55;2.05;;;;;;;;;;10182328;29;20107;-75
2024/01/23 18:37:36;;;;;;;7.20;2.20;;;;;;;;;;10191924;28;20044;-75
2024/01/23 18:42:40;;;;;;;4.93;1.58;;;;;;;;;;10192221;28;20059;-75
2024/01/23 18:47:44;;;;;;;3.83;1.45;;;;;;;;;;10192216;29;20142;-75
2024/01/23 18:52:48;;;;;;;4.25;1.45;;;;;;;;;;10191039;29;20571;-75
2024/01/23 18:57:53;;;;;;;5.47;1.70;;;;;;;;;;10189285;28;20130;-75
2024/01/23 19:02:56;;;;;;;7.72;2.47;;;;;;;;;;10183436;28;20051;-75
2024/01/23 19:08:00;;;;;;;6.40;2.10;;;;;;;;;;10192672;28;20135;-75
2024/01/23 19:13:05;;;;;;;10.90;2.15;;;;;;;;;;10182325;29;20039;-75
2024/01/23 19:18:09;;;;;;;7.72;2.63;;;;;;;;;;10188388;28;20048;-75
2024/01/23 19:23:15;;;;;;;8.18;2.70;;;;;;;;;;10185448;28;20154;-75
2024/01/23 19:28:20;;;;;;;11.40;2.53;;;;;;;;;;10183548;29;20559;-75
2024/01/23 19:33:24;;;;;;;7.55;1.95;;;;;;;;;;10185254;28;20052;-75
2024/01/23 19:38:28;;;;;;;8.20;2.47;;;;;;;;;;10185394;28;20434;-75
2024/01/23 19:43:33;;;;;;;6.53;2.00;;;;;;;;;;10187635;28;20662;-74
2024/01/23 19:48:36;;;;;;;6.53;2.05;;;;;;;;;;10187037;28;20055;-75
2024/01/23 19:53:40;;;;;;;7.35;1.70;;;;;;;;;;10188679;29;20075;-75
2024/01/23 19:58:44;;;;;;;7.30;2.50;;;;;;;;;;10190061;29;20142;-75
2024/01/23 20:03:48;;;;;;;6.97;2.08;;;;;;;;;;10178039;28;20059;-75
2024/01/23 20:08:52;;;;;;;9.30;2.65;;;;;;;;;;10177434;28;20408;-75
2024/01/23 20:13:57;;;;;;;10.75;2.25;;;;;;;;;;10179378;28;20059;-75
2024/01/23 20:19:00;;;;;;;6.20;1.85;;;;;;;;;;10188519;29;20051;-74
2024/01/23 20:24:04;;;;;;;13.82;2.97;;;;;;;;;;10184000;29;20108;-75
2024/01/23 20:29:09;;;;;;;11.77;3.13;;;;;;;;;;10190798;28;20062;-75
2024/01/23 20:34:12;;;;;;;9.07;2.60;;;;;;;;;;10187966;28;20048;-75
2024/01/23 20:39:18;;;;;;;8.98;2.72;;;;;;;;;;10183110;28;20064;-75
2024/01/23 20:44:22;;;;;;;6.38;2.28;;;;;;;;;;10182521;28;20384;-75
2024/01/23 20:49:25;;;;;;;7.60;2.40;;;;;;;;;;10186843;28;20048;-75
2024/01/23 20:54:29;;;;;;;9.38;2.60;;;;;;;;;;10193513;29;20063;-75
2024/01/23 20:59:33;;;;;;;9.35;2.72;;;;;;;;;;10188589;28;20078;-75
2024/01/23 21:04:37;;;;;;;7.13;2.38;;;;;;;;;;10189476;28;20064;-75
2024/01/23 21:09:41;;;;;;;4.50;1.70;;;;;;;;;;10188025;28;20047;-75
2024/01/23 21:14:46;;;;;;;6.50;2.00;;;;;;;;;;10185745;28;20056;-75
2024/01/23 21:19:51;;;;;;;6.85;1.70;;;;;;;;;;10187122;29;20048;-75
2024/01/23 21:24:54;;;;;;;10.18;2.15;;;;;;;;;;10182407;28;20524;-75
2024/01/23 21:29:59;;;;;;;4.63;1.50;;;;;;;;;;10186807;29;20103;-75
2024/01/23 21:35:02;;;;;;;3.65;1.13;;;;;;;;;;10187951;28;20539;-75
2024/01/23 21:40:07;;;;;;;5.78;2.45;;;;;;;;;;10189478;29;20055;-75
2024/01/23 21:45:12;;;;;;;3.58;1.33;;;;;;;;;;10191123;29;20056;-75
2024/01/23 21:50:16;;;;;;;3.97;1.20;;;;;;;;;;10197976;29;20118;-75
2024/01/23 21:55:19;;;;;;;3.35;1.20;;;;;;;;;;10188233;29;20414;-75
2024/01/23 22:00:25;;;;;;;2.97;1.02;;;;;;;;;;10183491;29;20055;-75
2024/01/23 22:05:28;;;;;;;4.18;0.95;;;;;;;;;;10192057;28;20253;-75
2024/01/23 22:10:32;;;;;;;3.15;0.98;;;;;;;;;;10186717;29;20579;-75
2024/01/23 22:15:36;;;;;;;3.15;1.33;;;;;;;;;;10184055;28;20427;-75
2024/01/23 22:20:40;;;;;;;2.55;1.00;;;;;;;;;;10188190;29;20743;-75
2024/01/23 22:25:43;;;;;;;2.17;0.90;;;;;;;;;;10188279;28;20566;-75
2024/01/23 22:30:47;;;;;;;2.53;1.10;;;;;;;;;;10196261;28;20404;-75
2024/01/23 22:35:51;;;;;;;2.25;1.00;;;;;;;;;;10185011;29;20052;-75
2024/01/23 22:40:55;;;;;;;1.30;0.80;;;;;;;;;;10194938;29;20542;-75
2024/01/23 22:45:59;;;;;;;2.22;0.90;;;;;;;;;;10192552;28;20060;-75
2024/01/23 22:51:02;;;;;;;1.05;0.50;;;;;;;;;;10181929;29;20410;-75
2024/01/23 22:56:07;;;;;;;1.02;0.70;;;;;;;;;;10194228;28;20054;-75
2024/01/23 23:01:12;;;;;;;1.55;0.60;;;;;;;;;;10189892;29;20079;-75
2024/01/23 23:06:16;;;;;;;1.92;0.82;;;;;;;;;;10188044;28;20101;-74
2024/01/23 23:11:21;;;;;;;2.35;0.60;;;;;;;;;;10172577;23;20405;-75
2024/01/23 23:16:26;;;;;;;2.35;1.05;;;;;;;;;;10141454;28;20504;-75
2024/01/23 23:21:30;;;;;;;0.93;0.57;;;;;;;;;;10110642;29;20432;-75
2024/01/23 23:26:33;;;;;;;1.13;0.63;;;;;;;;;;10115558;29;20053;-75
2024/01/23 23:31:40;;;;;;;1.45;0.70;;;;;;;;;;10116270;29;20585;-75
2024/01/23 23:36:43;;;;;;;1.92;0.52;;;;;;;;;;10110231;29;20332;-75
2024/01/23 23:41:46;;;;;;;0.82;0.50;;;;;;;;;;10116008;29;20080;-75
2024/01/23 23:46:51;;;;;;;3.17;1.00;;;;;;;;;;10120235;29;20104;-75
2024/01/23 23:51:54;;;;;;;1.52;0.68;;;;;;;;;;10119302;29;20085;-75
2024/01/23 23:56:58;;;;;;;1.63;0.52;;;;;;;;;;10121717;29;20108;-75
